createdAt,value
2023-05-08T00:05:00.212Z,23
2023-05-08T00:09:59.546Z,23
2023-05-08T00:14:59.633Z,23
2023-05-08T00:19:59.595Z,23
2023-05-08T00:24:59.413Z,24
2023-05-08T00:29:59.443Z,24
2023-05-08T00:34:59.680Z,24
2023-05-08T00:39:59.422Z,24
2023-05-08T00:44:59.411Z,24
2023-05-08T00:50:00.268Z,24
2023-05-08T00:54:59.459Z,24
2023-05-08T00:59:59.434Z,24
2023-05-08T01:04:59.297Z,24
2023-05-08T01:09:59.751Z,25
2023-05-08T01:14:59.644Z,25
2023-05-08T01:19:59.485Z,25
2023-05-08T01:24:59.488Z,25
2023-05-08T01:29:59.434Z,25
2023-05-08T01:35:02.588Z,25
2023-05-08T01:39:59.267Z,25
2023-05-08T01:44:59.562Z,25
2023-05-08T01:49:59.576Z,25
2023-05-08T01:54:59.497Z,25
2023-05-08T01:59:59.526Z,25
2023-05-08T02:05:01.543Z,25
2023-05-08T02:09:59.216Z,25
2023-05-08T02:15:01.281Z,25
2023-05-08T02:20:00.835Z,25
2023-05-08T02:24:59.464Z,25
2023-05-08T02:29:59.363Z,25
2023-05-08T02:35:03.416Z,25
2023-05-08T02:40:00.970Z,24
2023-05-08T02:44:59.501Z,24
2023-05-08T02:49:59.295Z,24
2023-05-08T02:54:59.504Z,24
2023-05-08T03:00:01.786Z,24
2023-05-08T03:04:59.173Z,24
2023-05-08T03:10:01.714Z,24
2023-05-08T03:14:59.264Z,24
2023-05-08T03:19:59.274Z,24
2023-05-08T03:25:00.483Z,24
2023-05-08T03:29:59.498Z,24
2023-05-08T03:34:59.318Z,24
2023-05-08T03:39:59.546Z,24
2023-05-08T03:44:59.250Z,25
2023-05-08T03:49:59.972Z,25
2023-05-08T03:54:59.637Z,25
2023-05-08T03:59:59.166Z,25
2023-05-08T04:05:01.112Z,25
2023-05-08T04:09:59.136Z,25
2023-05-08T04:15:02.284Z,25
2023-05-08T04:19:59.152Z,24
2023-05-08T04:25:01.787Z,25
2023-05-08T04:29:59.804Z,24
2023-05-08T04:34:59.319Z,24
2023-05-08T04:39:59.218Z,24
2023-05-08T04:44:59.297Z,25
2023-05-08T04:50:01.470Z,26
2023-05-08T04:54:59.224Z,27
2023-05-08T04:59:59.120Z,28
2023-05-08T05:04:59.358Z,28
2023-05-08T05:09:59.285Z,29
2023-05-08T05:14:59.401Z,29
2023-05-08T05:19:59.387Z,29
2023-05-08T05:24:59.039Z,29
2023-05-08T05:29:59.339Z,30
2023-05-08T05:34:59.171Z,30
2023-05-08T05:39:59.282Z,31
2023-05-08T05:44:59.290Z,31
2023-05-08T05:49:59.454Z,31
2023-05-08T05:54:59.226Z,32
2023-05-08T05:59:59.648Z,33
2023-05-08T06:04:59.072Z,34
2023-05-08T06:09:59.239Z,35
2023-05-08T06:14:59.008Z,36
2023-05-08T06:19:59.449Z,37
2023-05-08T06:24:59.207Z,38
2023-05-08T06:29:59.207Z,39
2023-05-08T06:34:59.070Z,40
2023-05-08T06:40:10.892Z,40
2023-05-08T06:44:59.280Z,41
2023-05-08T06:49:59.562Z,42
2023-05-08T06:54:59.562Z,42
2023-05-08T06:59:59.328Z,43
2023-05-08T07:04:59.357Z,44
2023-05-08T07:09:59.129Z,45
2023-05-08T07:14:59.618Z,45
2023-05-08T07:19:59.053Z,46
2023-05-08T07:24:59.213Z,47
2023-05-08T07:29:59.341Z,48
2023-05-08T07:34:59.136Z,48
2023-05-08T07:39:59.130Z,49
2023-05-08T07:44:59.118Z,49
2023-05-08T07:49:59.496Z,49
2023-05-08T07:54:59.115Z,50
2023-05-08T08:00:00.567Z,51
2023-05-08T08:04:59.143Z,51
2023-05-08T08:10:00.028Z,51
2023-05-08T08:14:59.248Z,52
2023-05-08T08:19:59.161Z,52
2023-05-08T08:24:59.286Z,52
2023-05-08T08:30:12.757Z,54
2023-05-08T08:34:59.118Z,54
2023-05-08T08:39:59.548Z,55
2023-05-08T08:44:58.999Z,55
2023-05-08T08:49:59.116Z,56
2023-05-08T08:54:59.138Z,57
2023-05-08T08:59:59.111Z,58
2023-05-08T09:04:59.353Z,61
2023-05-08T09:09:59.194Z,62
2023-05-08T09:14:58.900Z,63
2023-05-08T09:19:59.177Z,64
2023-05-08T09:24:59.631Z,65
2023-05-08T09:29:59.184Z,66
2023-05-08T09:34:59.245Z,67
2023-05-08T09:39:59.280Z,68
2023-05-08T09:44:58.984Z,69
2023-05-08T09:49:59.213Z,70
2023-05-08T09:55:00.032Z,70
2023-05-08T09:59:58.866Z,70
2023-05-08T10:04:59.188Z,70
2023-05-08T10:09:59.053Z,70
2023-05-08T10:14:58.929Z,71
2023-05-08T10:20:00.638Z,71
2023-05-08T10:24:59.071Z,71
2023-05-08T10:29:58.959Z,70
2023-05-08T10:34:59.031Z,70
2023-05-08T10:39:59.097Z,71
2023-05-08T10:44:59.248Z,72
2023-05-08T10:50:03.160Z,72
2023-05-08T10:54:59.133Z,71
2023-05-08T10:59:59.233Z,70
2023-05-08T11:05:13.119Z,70
2023-05-08T11:09:59.014Z,73
2023-05-08T11:15:00.580Z,72
2023-05-08T11:19:59.190Z,71
2023-05-08T11:25:00.777Z,70
2023-05-08T11:30:25.253Z,70
2023-05-08T11:34:59.224Z,68
2023-05-08T11:39:59.035Z,67
2023-05-08T11:44:58.901Z,67
2023-05-08T11:49:59.347Z,66
2023-05-08T11:54:58.790Z,64
2023-05-08T11:59:58.789Z,63
2023-05-08T12:04:59.231Z,62
2023-05-08T12:10:00.125Z,61
2023-05-08T12:14:58.887Z,60
2023-05-08T12:19:59.082Z,59
2023-05-08T12:24:58.786Z,58
2023-05-08T12:29:58.715Z,57
2023-05-08T12:34:58.827Z,57
2023-05-08T12:39:59.260Z,56
2023-05-08T12:44:59.037Z,55
2023-05-08T12:49:58.921Z,55
2023-05-08T12:54:58.864Z,54
2023-05-08T13:00:00.544Z,53
2023-05-08T13:04:59.053Z,52
2023-05-08T13:09:59.044Z,51
2023-05-08T13:14:58.894Z,50
2023-05-08T13:19:59.142Z,49
2023-05-08T13:24:59.016Z,48
2023-05-08T13:29:58.679Z,48
2023-05-08T13:35:00.948Z,47
2023-05-08T13:39:58.721Z,47
2023-05-08T13:44:58.983Z,47
2023-05-08T13:49:59.108Z,47
2023-05-08T13:54:58.870Z,46
2023-05-08T13:59:58.896Z,46
2023-05-08T14:04:58.786Z,46
2023-05-08T14:09:59.508Z,46
2023-05-08T14:14:58.849Z,46
2023-05-08T14:19:59.510Z,46
2023-05-08T14:24:58.973Z,45
2023-05-08T14:29:58.832Z,45
2023-05-08T14:34:58.897Z,45
2023-05-08T14:39:59.255Z,45
2023-05-08T14:44:59.291Z,45
2023-05-08T14:49:59.178Z,45
2023-05-08T14:54:58.845Z,45
2023-05-08T14:59:58.630Z,45
2023-05-08T15:04:58.714Z,46
2023-05-08T15:09:58.722Z,46
2023-05-08T15:14:59.440Z,46
2023-05-08T15:19:58.761Z,47
2023-05-08T15:24:58.642Z,47
2023-05-08T15:29:58.724Z,48
2023-05-08T15:34:58.938Z,48
2023-05-08T15:39:58.706Z,49
2023-05-08T15:44:58.730Z,50
2023-05-08T15:49:58.858Z,50
2023-05-08T15:54:58.676Z,51
2023-05-08T15:59:58.729Z,52
2023-05-08T16:04:58.965Z,53
2023-05-08T16:09:58.735Z,53
2023-05-08T16:14:58.813Z,54
2023-05-08T16:19:58.772Z,55
2023-05-08T16:24:58.523Z,55
2023-05-08T16:29:58.695Z,54
2023-05-08T16:34:58.813Z,54
2023-05-08T16:39:59.032Z,55
2023-05-08T16:44:58.909Z,55
2023-05-08T16:49:58.889Z,55
2023-05-08T16:54:58.978Z,54
2023-05-08T16:59:58.520Z,54
2023-05-08T17:04:58.726Z,54
2023-05-08T17:09:58.745Z,53
2023-05-08T17:14:58.647Z,52
2023-05-08T17:19:59.066Z,51
2023-05-08T17:24:58.448Z,50
2023-05-08T17:29:58.746Z,49
2023-05-08T17:34:58.560Z,48
2023-05-08T17:40:00.930Z,48
2023-05-08T17:45:00.350Z,47
2023-05-08T17:50:00.401Z,47
2023-05-08T17:55:00.534Z,48
2023-05-08T18:00:00.614Z,48
2023-05-08T18:05:00.369Z,47
2023-05-08T18:10:00.438Z,47
2023-05-08T18:15:03.497Z,46
2023-05-08T18:20:01.073Z,45
2023-05-08T18:25:00.431Z,44
2023-05-08T18:30:00.442Z,44
2023-05-08T18:35:00.571Z,43
2023-05-08T18:40:00.490Z,43
2023-05-08T18:45:02.081Z,42
2023-05-08T18:50:00.398Z,42
2023-05-08T18:55:00.446Z,42
2023-05-08T19:00:00.733Z,42
2023-05-08T19:05:00.590Z,41
2023-05-08T19:10:00.620Z,41
2023-05-08T19:15:00.526Z,41
2023-05-08T19:20:00.414Z,41
2023-05-08T19:25:00.488Z,37
2023-05-08T19:30:00.573Z,36
2023-05-08T19:35:00.496Z,37
2023-05-08T19:40:00.335Z,37
2023-05-08T19:45:00.383Z,37
2023-05-08T19:50:00.329Z,38
2023-05-08T19:55:00.212Z,38
2023-05-08T20:00:00.270Z,38
2023-05-08T20:10:00.576Z,38
2023-05-08T20:15:00.176Z,39
2023-05-08T20:20:00.517Z,39
2023-05-08T20:25:02.771Z,39
2023-05-08T20:30:00.623Z,39
2023-05-08T20:35:00.766Z,39
2023-05-08T20:40:00.472Z,39
2023-05-08T20:45:00.349Z,39
2023-05-08T20:50:00.573Z,39
2023-05-08T20:55:00.304Z,39
2023-05-08T21:00:00.502Z,39
2023-05-08T21:05:00.448Z,39
2023-05-08T21:10:01.116Z,39
2023-05-08T21:15:00.202Z,39
2023-05-08T21:20:00.509Z,38
2023-05-08T21:25:00.365Z,38
2023-05-08T21:30:00.196Z,38
2023-05-08T21:35:00.138Z,38
2023-05-08T21:40:00.330Z,39
2023-05-08T21:45:00.434Z,39
2023-05-08T21:50:00.430Z,39
2023-05-08T21:55:00.132Z,39
2023-05-08T22:00:01.435Z,40
2023-05-08T22:05:00.072Z,40
2023-05-08T22:10:00.196Z,41
2023-05-08T22:15:00.314Z,41
2023-05-08T22:20:00.417Z,42
2023-05-08T22:25:00.423Z,42
2023-05-08T22:30:00.749Z,43
2023-05-08T22:35:00.232Z,43
2023-05-08T22:40:00.371Z,43
2023-05-08T22:45:00.180Z,44
2023-05-08T22:50:00.154Z,44
2023-05-08T22:55:00.260Z,44
2023-05-08T23:00:00.243Z,44
2023-05-08T23:05:00.325Z,44
2023-05-08T23:10:00.583Z,44
2023-05-08T23:15:00.354Z,45
2023-05-08T23:20:00.655Z,45
2023-05-08T23:25:00.394Z,45
2023-05-08T23:30:00.360Z,45
2023-05-08T23:35:00.063Z,45
2023-05-08T23:40:00.412Z,45
2023-05-08T23:45:00.402Z,45
2023-05-08T23:50:00.416Z,46
2023-05-08T23:55:00.525Z,46
